METAR de aeropuertos de Murcia y cercanos

 

LEMI - Murcia/Corvera
Actualización: 22/07/2019 08:00
Despejado
Despejado
 Viento del NNE
Viento: NNE 17 km/h
Temperatura: 25°C
Rocío: 16°C
Humedad: 57%
Barómetro: 1020 hPa
Resumen: Despejado
Visibilidad: greater than 10 km
2019/07/22 06:00 LEMI 220600Z 02009KT CAVOK 25/16 Q1020
LERI - Murcia/Alcantarilla
Actualización: 22/07/2019 08:00
Despejado
Despejado
 Viento del calm
Viento: Calma
Temperatura: 22°C
Rocío: 17°C
Humedad: 73%
Barómetro: 1020 hPa
Resumen: Despejado
Visibilidad: greater than 10 km
2019/07/22 06:00 LERI 220600Z 00000KT CAVOK 22/17 Q1020 NOSIG
LELC - Murcia/San Javier
Actualización: 22/07/2019 08:00
Despejado
Despejado
 Viento del NE
Viento: NE 31 km/h
Temperatura: 26°C
Rocío: 21°C
Humedad: 74%
Barómetro: 1019 hPa
Resumen: Despejado
Visibilidad: greater than 10 km
2019/07/22 06:00 LELC 220600Z 04017KT 010V070 CAVOK 26/21 Q1019 NOSIG
 
LEAL - Alicante
Actualización: 22/07/2019 08:00
Despejado
Despejado
 Viento del E
Viento: E 6 km/h
Temperatura: 25°C
Rocío: 15°C
Humedad: 54%
Barómetro: 1020 hPa
Resumen: Despejado
Visibilidad: greater than 10 km
2019/07/22 06:00 LEAL 220600Z 09003KT 040V110 CAVOK 25/15 Q1020 NOSIG
LEAB - Albacete
Actualización: 22/07/2019 08:00
Despejado
Despejado
 Viento del SE
Viento: SE 9 km/h
Temperatura: 20°C
Rocío: 15°C
Humedad: 73%
Barómetro: 1024 hPa
Resumen: Despejado
Visibilidad: greater than 10 km
2019/07/22 06:00 LEAB 220600Z 14005KT CAVOK 20/15 Q1024 NOSIG
LEAM - Almería
Actualización: 22/07/2019 08:00
Despejado
Despejado
 Viento del NE
Viento: NE 4 km/h
Temperatura: 25°C
Rocío: 21°C
Humedad: 79%
Barómetro: 1018 hPa
Resumen: Despejado
Visibilidad: greater than 10 km
2019/07/22 06:00 LEAM 220600Z 05002KT CAVOK 25/21 Q1018

La estación de MeteoMurcia.com, publica sus datos en los siguientes proyectos:

Weather Underground PWS IMURCIAP2 Meteoclimatic www.awekas.at

W3Counter
Web Analytics